Time;durP1;ratioP1;P1;durP2;ratioP2;P2;SDS_P1;SDS_P2;PMS_P1;PMS_P2;Temp;Humidity;BMP_temperature;BMP_pressure;BME280_temperature;BME280_humidity;BME280_pressure;Samples;Min_cycle;Max_cycle;Signal;HPM_P1;HPM_P2
2023/05/09 00:02:05;;;;;;;7.70;2.83;;;18.80;94.50;;;;;;4986680;28;20037;-59
2023/05/09 00:04:31;;;;;;;7.50;2.38;;;18.80;94.50;;;;;;4985392;28;20027;-58
2023/05/09 00:06:57;;;;;;;5.70;2.22;;;18.80;94.50;;;;;;4987028;28;20039;-59
2023/05/09 00:09:23;;;;;;;4.85;2.20;;;18.80;94.50;;;;;;4987070;28;20023;-58
2023/05/09 00:11:49;;;;;;;5.65;2.13;;;18.80;94.50;;;;;;4966617;28;20082;-58
2023/05/09 00:14:14;;;;;;;7.53;2.00;;;18.80;94.50;;;;;;4980737;28;20054;-59
2023/05/09 00:16:40;;;;;;;7.47;2.45;;;18.70;94.40;;;;;;4986356;28;20082;-59
2023/05/09 00:19:06;;;;;;;7.30;2.67;;;18.70;94.50;;;;;;4986861;28;20367;-58
2023/05/09 00:21:33;;;;;;;4.47;1.98;;;18.70;94.50;;;;;;4986463;28;20360;-59
2023/05/09 00:23:59;;;;;;;8.75;2.63;;;18.70;94.60;;;;;;5017309;28;20031;-58
2023/05/09 00:26:25;;;;;;;6.43;2.67;;;18.70;94.60;;;;;;4971285;28;20157;-59
2023/05/09 00:28:50;;;;;;;6.90;2.08;;;18.70;94.60;;;;;;4986475;28;20134;-59
2023/05/09 00:31:16;;;;;;;4.93;2.38;;;18.70;94.60;;;;;;4986076;28;20050;-58
2023/05/09 00:33:41;;;;;;;11.55;2.50;;;18.70;94.60;;;;;;4985716;28;20068;-58
2023/05/09 00:36:07;;;;;;;6.43;2.10;;;18.70;94.60;;;;;;4986251;28;20027;-58
2023/05/09 00:38:32;;;;;;;9.60;2.78;;;18.60;94.70;;;;;;4986893;28;20110;-59
2023/05/09 00:40:58;;;;;;;6.82;2.47;;;18.60;94.70;;;;;;4986051;28;20074;-58
2023/05/09 00:43:23;;;;;;;9.75;2.20;;;18.60;94.70;;;;;;5003037;28;20470;-59
2023/05/09 00:45:49;;;;;;;6.93;2.28;;;18.60;94.70;;;;;;4986105;28;20090;-58
2023/05/09 00:48:15;;;;;;;3.05;2.00;;;18.60;94.70;;;;;;4985160;28;20099;-59
2023/05/09 00:50:41;;;;;;;5.05;2.53;;;18.60;94.70;;;;;;4985070;28;20045;-58
2023/05/09 00:53:07;;;;;;;6.03;2.78;;;18.60;94.80;;;;;;4986332;28;20030;-58
2023/05/09 00:55:32;;;;;;;4.57;2.83;;;18.60;94.80;;;;;;4969296;28;20038;-58
2023/05/09 00:57:58;;;;;;;5.68;2.50;;;18.60;94.80;;;;;;4966770;28;20070;-58
2023/05/09 01:00:24;;;;;;;3.63;2.42;;;18.60;94.80;;;;;;4980521;28;20050;-58
2023/05/09 01:02:51;;;;;;;3.72;2.33;;;18.50;94.80;;;;;;5017259;28;20066;-58
2023/05/09 01:05:17;;;;;;;5.93;2.45;;;18.60;94.90;;;;;;4985694;28;20042;-59
2023/05/09 01:07:56;;;;;;;4.07;2.63;;;18.50;94.90;;;;;;4987452;28;20041;-59
2023/05/09 01:10:33;;;;;;;3.60;2.15;;;18.50;94.90;;;;;;5017288;28;20046;-59
2023/05/09 01:13:44;;;;;;;2.92;2.50;;;18.50;95.00;;;;;;5017925;28;20038;-58
2023/05/09 01:16:22;;;;;;;7.47;3.28;;;18.40;95.00;;;;;;4958994;28;20438;-59
2023/05/09 01:19:02;;;;;;;3.10;2.53;;;18.40;95.00;;;;;;4985841;28;20031;-58
2023/05/09 01:21:28;;;;;;;7.95;3.17;;;18.40;95.10;;;;;;4985521;28;20379;-59
2023/05/09 01:24:32;;;;;;;4.57;3.47;;;18.40;95.20;;;;;;5001264;28;20027;-58
2023/05/09 01:27:27;;;;;;;4.53;3.58;;;18.40;95.20;;;;;;4985841;28;20039;-58
2023/05/09 01:29:56;;;;;;;3.95;3.10;;;18.40;95.20;;;;;;4980065;28;20034;-58
2023/05/09 01:32:26;;;;;;;3.10;2.80;;;18.40;95.30;;;;;;4986593;28;20035;-59
2023/05/09 01:34:53;;;;;;;6.65;3.08;;;18.30;95.30;;;;;;4969226;28;20022;-58
2023/05/09 01:37:21;;;;;;;3.65;3.20;;;18.30;95.30;;;;;;4985591;28;20043;-59
2023/05/09 01:39:49;;;;;;;5.65;3.13;;;18.30;95.30;;;;;;4985438;28;20034;-59
2023/05/09 01:42:16;;;;;;;7.78;3.25;;;18.20;95.40;;;;;;4985726;28;20027;-58
2023/05/09 01:44:42;;;;;;;3.72;2.90;;;18.20;95.40;;;;;;4985491;28;20050;-58
2023/05/09 01:47:07;;;;;;;4.93;2.85;;;18.20;95.50;;;;;;5001570;28;20031;-58
2023/05/09 01:49:34;;;;;;;5.68;3.15;;;18.20;95.60;;;;;;4985367;28;20042;-59
2023/05/09 01:52:06;;;;;;;2.83;2.30;;;18.20;95.60;;;;;;4986428;28;20034;-59
2023/05/09 01:54:31;;;;;;;2.90;2.50;;;18.20;95.60;;;;;;4983899;28;20038;-59
2023/05/09 01:56:57;;;;;;;7.90;2.58;;;18.20;95.60;;;;;;4965518;29;20054;-58
2023/05/09 01:59:23;;;;;;;3.22;2.45;;;18.20;95.60;;;;;;4972568;28;20023;-58
2023/05/09 02:01:48;;;;;;;4.75;2.63;;;18.20;95.60;;;;;;4983350;28;20088;-59
2023/05/09 02:04:15;;;;;;;3.47;2.20;;;18.10;95.70;;;;;;4984150;28;20030;-58
2023/05/09 02:06:41;;;;;;;4.75;2.42;;;18.10;95.70;;;;;;4985209;28;20031;-58
2023/05/09 02:09:07;;;;;;;4.57;2.63;;;18.20;95.80;;;;;;4983233;28;20031;-59
2023/05/09 02:11:32;;;;;;;3.33;2.20;;;18.10;95.80;;;;;;4984047;28;20030;-58
2023/05/09 02:13:58;;;;;;;3.47;2.17;;;18.10;95.90;;;;;;4984763;28;20058;-59
2023/05/09 02:16:23;;;;;;;2.58;2.00;;;18.10;95.90;;;;;;4985029;28;20035;-58
2023/05/09 02:18:51;;;;;;;2.97;1.95;;;18.00;95.90;;;;;;4983709;28;20042;-59
2023/05/09 02:21:16;;;;;;;4.18;1.92;;;18.00;95.90;;;;;;4986177;28;20042;-59
2023/05/09 02:23:42;;;;;;;3.03;2.03;;;18.00;95.90;;;;;;4984415;28;20031;-59
2023/05/09 02:26:07;;;;;;;6.45;1.92;;;18.00;95.90;;;;;;4984341;28;20019;-58
2023/05/09 02:28:33;;;;;;;2.83;2.08;;;18.00;95.90;;;;;;4984158;28;20037;-58
2023/05/09 02:30:58;;;;;;;3.15;1.83;;;18.00;95.90;;;;;;4984350;28;20019;-58
2023/05/09 02:33:24;;;;;;;2.20;1.83;;;17.90;95.80;;;;;;4983837;28;20034;-59
2023/05/09 02:35:50;;;;;;;2.85;2.00;;;17.90;95.80;;;;;;4984065;28;20035;-59
2023/05/09 02:38:15;;;;;;;3.72;1.90;;;17.90;95.90;;;;;;4983140;28;20028;-59
2023/05/09 02:40:42;;;;;;;2.10;1.85;;;17.90;95.90;;;;;;4984731;28;20049;-58
2023/05/09 02:43:07;;;;;;;3.33;2.00;;;17.90;95.90;;;;;;4984554;28;20027;-58
2023/05/09 02:45:33;;;;;;;4.00;2.17;;;17.90;95.90;;;;;;4984224;28;20026;-59
2023/05/09 02:47:58;;;;;;;3.47;1.75;;;17.90;96.20;;;;;;4986385;28;20110;-58
2023/05/09 02:50:24;;;;;;;3.33;2.05;;;17.90;95.90;;;;;;5016525;28;20108;-59
2023/05/09 02:52:50;;;;;;;6.00;2.38;;;17.90;96.00;;;;;;4985379;28;20056;-59
2023/05/09 02:55:15;;;;;;;3.85;2.13;;;17.80;95.90;;;;;;4987311;28;20026;-58
2023/05/09 02:57:41;;;;;;;4.90;2.50;;;17.80;96.00;;;;;;4984231;28;20053;-58
2023/05/09 03:00:11;;;;;;;6.18;2.53;;;17.80;96.00;;;;;;4980367;28;20038;-58
2023/05/09 03:02:36;;;;;;;3.15;2.30;;;17.80;96.00;;;;;;4983127;28;20042;-58
2023/05/09 03:05:02;;;;;;;4.47;2.40;;;17.80;96.10;;;;;;4984265;28;20026;-58
2023/05/09 03:07:28;;;;;;;4.85;3.00;;;17.80;96.10;;;;;;4984059;28;20023;-58
2023/05/09 03:09:54;;;;;;;5.80;2.80;;;17.70;96.20;;;;;;4983853;28;20472;-58
2023/05/09 03:12:19;;;;;;;5.72;3.10;;;17.70;96.20;;;;;;4982173;28;20053;-58
2023/05/09 03:14:45;;;;;;;4.20;2.70;;;17.70;96.30;;;;;;4983318;28;20041;-58
2023/05/09 03:17:11;;;;;;;3.42;2.63;;;17.70;96.30;;;;;;4983545;28;20046;-58
2023/05/09 03:19:36;;;;;;;6.68;3.38;;;17.60;96.30;;;;;;4983453;28;20125;-58
2023/05/09 03:22:02;;;;;;;8.60;2.78;;;17.60;96.30;;;;;;4983776;28;20031;-58
2023/05/09 03:24:28;;;;;;;5.35;3.50;;;17.60;96.40;;;;;;4983618;28;20111;-58
2023/05/09 03:26:53;;;;;;;5.45;3.35;;;17.60;96.40;;;;;;5000775;28;20027;-58
2023/05/09 03:29:19;;;;;;;7.03;3.88;;;17.60;96.40;;;;;;4984109;28;20022;-58
2023/05/09 03:31:45;;;;;;;7.07;4.13;;;17.60;96.50;;;;;;5016191;28;20034;-58
2023/05/09 03:34:13;;;;;;;7.30;4.97;;;17.50;96.60;;;;;;4981970;28;20043;-58
2023/05/09 03:36:41;;;;;;;6.20;5.60;;;17.50;96.70;;;;;;4970078;28;20122;-58
2023/05/09 03:39:07;;;;;;;10.52;6.10;;;17.60;96.80;;;;;;4985277;28;20034;-59
2023/05/09 03:41:34;;;;;;;12.65;6.38;;;17.50;96.90;;;;;;4983128;28;20023;-58
2023/05/09 03:44:00;;;;;;;15.63;7.38;;;17.50;96.90;;;;;;4983935;28;20031;-59
2023/05/09 03:46:26;;;;;;;12.93;6.38;;;17.50;97.00;;;;;;4985577;28;20022;-58
2023/05/09 03:48:51;;;;;;;17.92;5.80;;;17.50;97.00;;;;;;5018168;28;20035;-58
2023/05/09 03:51:17;;;;;;;22.10;6.72;;;17.50;97.00;;;;;;4986123;28;20038;-58
2023/05/09 03:53:44;;;;;;;23.48;6.35;;;17.50;96.90;;;;;;4987748;28;20031;-58
2023/05/09 03:56:10;;;;;;;27.58;7.00;;;17.40;96.90;;;;;;4986182;28;20051;-58
2023/05/09 03:58:36;;;;;;;28.85;7.50;;;17.40;96.90;;;;;;4987207;28;20037;-59
2023/05/09 04:01:01;;;;;;;25.23;6.35;;;17.40;97.00;;;;;;4986750;28;20030;-58
2023/05/09 04:03:27;;;;;;;27.48;6.53;;;17.40;97.00;;;;;;4986944;28;20503;-58
2023/05/09 04:05:52;;;;;;;20.35;6.68;;;17.40;97.10;;;;;;4986026;28;20059;-58
2023/05/09 04:08:18;;;;;;;17.90;5.68;;;17.40;97.10;;;;;;4986956;28;20033;-58
2023/05/09 04:10:44;;;;;;;24.10;5.85;;;17.40;97.70;;;;;;4986647;28;20062;-58
2023/05/09 04:13:10;;;;;;;23.38;6.07;;;17.40;97.40;;;;;;4986404;28;20050;-58
2023/05/09 04:15:35;;;;;;;20.65;5.65;;;17.40;97.30;;;;;;4985348;28;20030;-58
2023/05/09 04:18:01;;;;;;;15.55;5.82;;;17.40;97.30;;;;;;5002737;28;20037;-59
2023/05/09 04:20:26;;;;;;;12.27;5.15;;;17.40;97.30;;;;;;5003051;28;20027;-59
2023/05/09 04:22:52;;;;;;;15.13;5.00;;;17.30;97.30;;;;;;4985156;28;20065;-58
2023/05/09 04:25:19;;;;;;;12.48;4.28;;;17.40;97.60;;;;;;4986726;28;20051;-58
2023/05/09 04:27:44;;;;;;;9.95;5.05;;;17.30;97.70;;;;;;4987918;28;20034;-59
2023/05/09 04:30:10;;;;;;;8.60;4.35;;;17.30;97.70;;;;;;4986341;28;20434;-58
2023/05/09 04:32:36;;;;;;;9.00;4.10;;;17.30;97.70;;;;;;4987845;28;20041;-58
2023/05/09 04:35:02;;;;;;;6.32;4.07;;;17.30;97.70;;;;;;4970007;28;20039;-58
2023/05/09 04:37:29;;;;;;;8.13;4.15;;;17.30;97.70;;;;;;4986382;28;20117;-59
2023/05/09 04:39:54;;;;;;;12.40;4.10;;;17.30;97.80;;;;;;5018004;28;20026;-58
2023/05/09 04:42:20;;;;;;;10.95;4.72;;;17.30;97.80;;;;;;4987071;28;20090;-58
2023/05/09 04:44:46;;;;;;;7.45;4.07;;;17.40;97.80;;;;;;4969920;28;20461;-58
2023/05/09 04:47:12;;;;;;;9.35;3.90;;;17.30;97.90;;;;;;4988473;28;20373;-58
2023/05/09 04:49:37;;;;;;;11.85;3.97;;;17.30;97.90;;;;;;4984960;28;20031;-59
2023/05/09 04:52:03;;;;;;;6.93;3.10;;;17.30;97.90;;;;;;4987237;28;20058;-58
2023/05/09 04:54:28;;;;;;;8.90;3.95;;;17.30;97.80;;;;;;4985740;28;20094;-58
2023/05/09 04:56:54;;;;;;;7.18;3.67;;;17.30;97.90;;;;;;4985774;28;20448;-59
2023/05/09 04:59:19;;;;;;;7.60;3.63;;;17.30;97.90;;;;;;4970012;28;20031;-58
2023/05/09 05:01:45;;;;;;;9.50;3.97;;;17.30;98.00;;;;;;4986235;28;20031;-58
2023/05/09 05:04:10;;;;;;;4.57;3.22;;;17.30;98.20;;;;;;4987008;28;20047;-59
2023/05/09 05:06:36;;;;;;;6.70;3.80;;;17.30;98.60;;;;;;4985715;28;20034;-58
2023/05/09 05:09:02;;;;;;;9.13;3.50;;;17.30;98.80;;;;;;4984990;28;20436;-58
2023/05/09 05:11:27;;;;;;;8.20;3.40;;;17.30;99.00;;;;;;4986678;28;20023;-58
2023/05/09 05:13:53;;;;;;;4.97;3.50;;;17.30;98.80;;;;;;4986195;28;20045;-58
2023/05/09 05:16:18;;;;;;;7.45;3.78;;;17.30;98.70;;;;;;4986979;28;20054;-58
2023/05/09 05:18:44;;;;;;;5.57;3.67;;;17.30;98.60;;;;;;4985869;28;20027;-58
2023/05/09 05:21:09;;;;;;;6.57;3.75;;;17.30;98.50;;;;;;4987415;28;20035;-58
2023/05/09 05:23:35;;;;;;;5.55;3.80;;;17.30;98.60;;;;;;5016667;28;20030;-58
2023/05/09 05:26:00;;;;;;;7.05;3.35;;;17.30;98.70;;;;;;4987185;28;20035;-58
2023/05/09 05:28:26;;;;;;;7.40;3.45;;;17.30;98.50;;;;;;4985051;28;20030;-58
2023/05/09 05:30:51;;;;;;;6.53;3.30;;;17.30;98.40;;;;;;4985056;28;20027;-59
2023/05/09 05:33:17;;;;;;;5.53;3.60;;;17.30;98.50;;;;;;4986213;28;20054;-58
2023/05/09 05:35:42;;;;;;;7.90;3.95;;;17.40;98.60;;;;;;4984959;28;20046;-59
2023/05/09 05:38:08;;;;;;;7.10;3.78;;;17.30;98.50;;;;;;4985800;28;20031;-58
2023/05/09 05:40:33;;;;;;;5.88;3.08;;;17.30;98.50;;;;;;4983840;28;20038;-59
2023/05/09 05:42:59;;;;;;;5.65;3.03;;;17.30;98.60;;;;;;4983619;28;20035;-58
2023/05/09 05:45:25;;;;;;;4.25;3.15;;;17.30;98.60;;;;;;4985244;28;20042;-58
2023/05/09 05:47:51;;;;;;;5.95;3.65;;;17.30;98.50;;;;;;4984271;28;20031;-58
2023/05/09 05:50:16;;;;;;;6.65;3.60;;;17.30;98.50;;;;;;4985229;28;20042;-59
2023/05/09 05:52:42;;;;;;;5.47;3.67;;;17.30;98.60;;;;;;4985360;28;20463;-58
2023/05/09 05:55:08;;;;;;;4.03;3.03;;;17.30;98.60;;;;;;4985552;28;20113;-58
2023/05/09 05:57:34;;;;;;;7.38;3.50;;;17.30;98.60;;;;;;4986151;28;20098;-58
2023/05/09 05:59:59;;;;;;;5.57;3.33;;;17.30;98.60;;;;;;5000447;28;20034;-58
2023/05/09 06:02:25;;;;;;;5.43;3.38;;;17.40;98.70;;;;;;4984097;28;20027;-59
2023/05/09 06:04:51;;;;;;;3.33;2.95;;;17.40;98.80;;;;;;4985215;28;20486;-58
2023/05/09 06:07:16;;;;;;;4.88;3.70;;;17.40;98.90;;;;;;4986346;28;20031;-59
2023/05/09 06:09:42;;;;;;;3.40;3.10;;;17.40;98.90;;;;;;4983854;28;20086;-58
2023/05/09 06:12:07;;;;;;;4.47;3.25;;;17.40;98.90;;;;;;4984961;28;20038;-58
2023/05/09 06:14:33;;;;;;;3.85;3.30;;;17.40;98.90;;;;;;4981044;28;20042;-58
2023/05/09 06:16:58;;;;;;;6.45;2.97;;;17.40;98.80;;;;;;4983914;28;20113;-59
2023/05/09 06:19:24;;;;;;;6.10;3.10;;;17.40;98.80;;;;;;4963205;28;20086;-58
2023/05/09 06:21:50;;;;;;;6.45;3.47;;;17.40;98.70;;;;;;4975036;28;20495;-58
2023/05/09 06:24:15;;;;;;;5.45;3.30;;;17.40;98.80;;;;;;5009729;28;20023;-58
2023/05/09 06:26:41;;;;;;;4.88;3.00;;;17.50;98.80;;;;;;4968120;28;20102;-58
2023/05/09 06:29:06;;;;;;;5.65;2.90;;;17.50;98.70;;;;;;4983271;28;20039;-58
2023/05/09 06:31:37;;;;;;;3.03;2.63;;;17.50;98.60;;;;;;5015605;28;20030;-59
2023/05/09 06:34:03;;;;;;;10.30;3.15;;;17.50;98.40;;;;;;5000732;28;20042;-59
2023/05/09 06:36:28;;;;;;;4.20;2.80;;;17.60;98.40;;;;;;4984084;28;20125;-58
2023/05/09 06:38:54;;;;;;;5.15;3.17;;;17.60;98.40;;;;;;4984896;28;20042;-59
2023/05/09 06:41:20;;;;;;;6.35;3.33;;;17.60;98.30;;;;;;4967976;28;20022;-58
2023/05/09 06:43:46;;;;;;;7.60;3.03;;;17.60;98.20;;;;;;5015711;28;20019;-58
2023/05/09 06:46:11;;;;;;;6.18;2.78;;;17.70;98.20;;;;;;4964964;29;20035;-58
2023/05/09 06:48:37;;;;;;;6.82;2.60;;;17.70;98.10;;;;;;4970486;28;20046;-58
2023/05/09 06:51:02;;;;;;;5.88;2.85;;;17.70;98.10;;;;;;4984989;28;20050;-58
2023/05/09 06:53:28;;;;;;;5.75;3.17;;;17.70;98.00;;;;;;4985281;28;20050;-59
2023/05/09 06:55:53;;;;;;;10.35;2.75;;;17.80;98.00;;;;;;4983806;28;20031;-58
2023/05/09 06:58:19;;;;;;;7.53;2.70;;;17.70;97.90;;;;;;4984180;28;20447;-58
2023/05/09 07:00:46;;;;;;;11.90;3.22;;;17.80;97.90;;;;;;4984827;28;20110;-58
2023/05/09 07:03:11;;;;;;;16.65;4.32;;;17.80;97.80;;;;;;4985231;28;20098;-59
2023/05/09 07:05:37;;;;;;;15.38;4.50;;;17.80;98.10;;;;;;5018366;28;20062;-58
2023/05/09 07:08:03;;;;;;;11.70;3.17;;;17.80;98.10;;;;;;4988063;28;20070;-58
2023/05/09 07:10:28;;;;;;;5.05;3.20;;;17.90;97.90;;;;;;4981790;28;20110;-58
2023/05/09 07:12:54;;;;;;;7.47;3.25;;;17.90;97.70;;;;;;4981543;28;20094;-59
2023/05/09 07:15:19;;;;;;;15.43;3.33;;;17.90;97.60;;;;;;4993842;28;20026;-58
2023/05/09 07:17:45;;;;;;;6.03;3.08;;;18.00;97.50;;;;;;4996579;28;20030;-59
2023/05/09 07:20:11;;;;;;;5.25;2.80;;;18.00;97.40;;;;;;4982260;28;20045;-58
2023/05/09 07:22:36;;;;;;;6.40;2.90;;;18.00;97.30;;;;;;5012843;28;20117;-58
2023/05/09 07:25:02;;;;;;;6.30;2.97;;;18.00;97.20;;;;;;4988124;28;20033;-58
2023/05/09 07:27:27;;;;;;;6.07;3.10;;;18.00;97.10;;;;;;4987986;28;20061;-58
2023/05/09 07:29:53;;;;;;;8.88;2.75;;;18.00;97.10;;;;;;4987830;28;20090;-58
2023/05/09 07:32:19;;;;;;;9.90;2.90;;;18.10;97.00;;;;;;4986822;28;20030;-59
2023/05/09 07:34:44;;;;;;;6.70;3.30;;;18.10;96.90;;;;;;4988095;28;20046;-58
2023/05/09 07:37:10;;;;;;;5.40;2.33;;;18.10;96.90;;;;;;4986647;28;20042;-58
2023/05/09 07:39:35;;;;;;;7.60;2.78;;;18.10;96.80;;;;;;4985354;28;20050;-59
2023/05/09 07:42:01;;;;;;;6.40;2.83;;;18.10;96.70;;;;;;4987164;28;20061;-59
2023/05/09 07:44:26;;;;;;;6.13;2.70;;;18.20;96.70;;;;;;4987494;28;20033;-58
2023/05/09 07:46:54;;;;;;;6.03;2.70;;;18.20;96.50;;;;;;4987073;28;20042;-59
2023/05/09 07:49:20;;;;;;;11.15;2.83;;;18.30;96.40;;;;;;4986797;28;20054;-57
2023/05/09 07:51:45;;;;;;;6.88;3.00;;;18.30;96.30;;;;;;4986198;28;20039;-59
2023/05/09 07:54:11;;;;;;;13.20;2.92;;;18.30;96.10;;;;;;4987835;28;20463;-58
2023/05/09 07:56:36;;;;;;;8.05;2.90;;;18.40;96.00;;;;;;4984361;28;20035;-59
2023/05/09 07:59:02;;;;;;;6.35;2.70;;;18.40;95.90;;;;;;4983101;28;20098;-58
2023/05/09 08:01:28;;;;;;;10.95;2.75;;;18.50;95.70;;;;;;4985503;28;20030;-58
2023/05/09 08:03:53;;;;;;;15.52;3.97;;;18.50;95.70;;;;;;4969448;28;20109;-58
2023/05/09 08:06:19;;;;;;;21.92;3.67;;;18.50;95.60;;;;;;4987876;28;20113;-58
2023/05/09 08:08:44;;;;;;;28.23;3.70;;;18.60;95.50;;;;;;4984989;28;20031;-59
2023/05/09 08:11:10;;;;;;;27.35;3.60;;;18.50;95.30;;;;;;4984507;28;20049;-59
2023/05/09 08:13:35;;;;;;;36.40;4.72;;;18.60;95.20;;;;;;4984225;28;20045;-58
2023/05/09 08:16:01;;;;;;;26.30;4.40;;;18.60;95.20;;;;;;4981900;28;20042;-58
2023/05/09 08:18:27;;;;;;;27.05;4.15;;;18.60;95.20;;;;;;4968357;28;20077;-58
2023/05/09 08:20:52;;;;;;;17.20;3.50;;;18.70;95.10;;;;;;4986377;28;20035;-59
2023/05/09 08:23:18;;;;;;;24.67;4.20;;;18.70;95.00;;;;;;4986009;28;20054;-58
2023/05/09 08:25:43;;;;;;;22.85;4.20;;;18.70;95.00;;;;;;5000523;28;20031;-58
2023/05/09 08:28:09;;;;;;;28.98;3.92;;;18.80;94.90;;;;;;4980357;28;20038;-58
2023/05/09 08:30:35;;;;;;;22.27;4.05;;;18.80;94.80;;;;;;4985759;28;20022;-58
2023/05/09 08:33:00;;;;;;;10.38;3.13;;;18.80;94.80;;;;;;4984885;28;20031;-59
2023/05/09 08:35:26;;;;;;;22.92;3.78;;;18.90;94.80;;;;;;4997486;28;20035;-59
2023/05/09 08:37:51;;;;;;;20.15;3.55;;;18.80;94.70;;;;;;4985253;28;20046;-59
2023/05/09 08:40:17;;;;;;;23.00;3.38;;;18.90;94.70;;;;;;4985759;28;20026;-58
2023/05/09 08:42:44;;;;;;;16.00;3.70;;;18.90;94.60;;;;;;4985563;28;20100;-58
2023/05/09 08:45:10;;;;;;;14.40;3.30;;;18.90;94.40;;;;;;4988982;28;20291;-59
2023/05/09 08:47:36;;;;;;;13.13;3.15;;;18.90;94.40;;;;;;4981174;28;20104;-58
2023/05/09 08:50:03;;;;;;;9.30;2.85;;;18.90;94.30;;;;;;4981637;28;20035;-59
2023/05/09 08:52:32;;;;;;;12.90;3.22;;;19.00;94.10;;;;;;4983233;28;20034;-59
2023/05/09 08:54:58;;;;;;;26.55;4.28;;;19.00;94.10;;;;;;5015238;28;20038;-59
2023/05/09 08:57:23;;;;;;;34.03;4.85;;;19.00;94.10;;;;;;4988737;28;20031;-59
2023/05/09 08:59:50;;;;;;;34.63;4.82;;;19.10;94.00;;;;;;4985161;28;20038;-59
2023/05/09 09:02:15;;;;;;;18.20;3.45;;;19.10;94.10;;;;;;4983524;28;20050;-59
2023/05/09 09:04:41;;;;;;;64.32;7.53;;;19.10;94.00;;;;;;4983983;28;20023;-58
2023/05/09 09:07:07;;;;;;;28.95;4.10;;;19.20;93.80;;;;;;4984866;28;20026;-59
2023/05/09 09:09:33;;;;;;;22.38;4.10;;;19.20;93.60;;;;;;4984478;28;20033;-58
2023/05/09 09:11:59;;;;;;;25.70;3.90;;;19.20;93.50;;;;;;4973159;28;20050;-58
2023/05/09 09:14:25;;;;;;;14.80;3.58;;;19.30;93.30;;;;;;4980624;28;20038;-58
2023/05/09 09:16:50;;;;;;;10.10;3.20;;;19.30;93.20;;;;;;4983453;28;20148;-59
2023/05/09 09:19:16;;;;;;;15.45;3.95;;;19.40;93.10;;;;;;4973207;28;20065;-59
2023/05/09 09:21:43;;;;;;;17.35;3.63;;;19.40;92.90;;;;;;4984699;28;20573;-59
2023/05/09 09:24:08;;;;;;;19.05;3.80;;;19.40;92.70;;;;;;4982663;28;20019;-59
2023/05/09 09:26:37;;;;;;;26.80;3.92;;;19.50;92.70;;;;;;4982229;28;20054;-59
2023/05/09 09:29:02;;;;;;;27.25;4.07;;;19.50;92.50;;;;;;4968938;28;20031;-58
2023/05/09 09:31:30;;;;;;;18.23;3.50;;;19.50;92.40;;;;;;4983428;28;20049;-58
2023/05/09 09:34:02;;;;;;;8.43;3.20;;;19.60;92.30;;;;;;4984497;28;20030;-59
2023/05/09 09:36:28;;;;;;;10.23;3.17;;;19.60;92.20;;;;;;5000402;28;20119;-58
2023/05/09 09:39:03;;;;;;;18.02;3.50;;;19.70;92.10;;;;;;4984020;28;20114;-59
2023/05/09 09:41:32;;;;;;;21.52;3.50;;;19.70;91.90;;;;;;4984766;28;20031;-58
2023/05/09 09:43:58;;;;;;;18.90;3.42;;;19.70;91.90;;;;;;4978076;28;20058;-59
2023/05/09 09:46:24;;;;;;;34.95;4.75;;;19.80;91.90;;;;;;4972203;28;20046;-58
2023/05/09 09:48:53;;;;;;;19.88;4.90;;;19.70;91.80;;;;;;4983657;28;20049;-58
2023/05/09 09:51:20;;;;;;;69.97;8.50;;;19.80;91.80;;;;;;4980400;28;20023;-58
2023/05/09 09:53:46;;;;;;;53.45;7.10;;;19.90;91.70;;;;;;4979813;28;20060;-59
2023/05/09 09:56:11;;;;;;;50.70;7.65;;;19.90;91.70;;;;;;4988390;28;20027;-59
2023/05/09 09:58:37;;;;;;;31.27;5.47;;;19.90;91.50;;;;;;5010070;28;20031;-59
2023/05/09 10:01:12;;;;;;;47.53;6.60;;;20.00;91.30;;;;;;4967161;28;20041;-59
2023/05/09 10:03:39;;;;;;;59.85;7.60;;;20.00;91.20;;;;;;4981531;28;20102;-58
2023/05/09 10:06:04;;;;;;;60.33;7.63;;;20.00;91.10;;;;;;4981183;28;20031;-58
2023/05/09 10:08:30;;;;;;;41.42;5.78;;;20.10;91.20;;;;;;4984749;28;20030;-58
2023/05/09 10:10:57;;;;;;;49.75;6.85;;;20.10;91.10;;;;;;4978269;28;20408;-59
2023/05/09 10:13:22;;;;;;;50.33;6.70;;;20.00;90.80;;;;;;4981696;28;20059;-59
2023/05/09 10:15:48;;;;;;;48.70;7.70;;;20.10;90.60;;;;;;4982675;28;20034;-59
2023/05/09 10:18:16;;;;;;;71.63;8.50;;;20.10;90.40;;;;;;4980509;28;20038;-59
2023/05/09 10:20:42;;;;;;;65.28;8.90;;;20.10;90.20;;;;;;4995792;28;20403;-59
2023/05/09 10:23:10;;;;;;;36.60;6.75;;;20.10;90.20;;;;;;4980055;28;20031;-59
2023/05/09 10:25:39;;;;;;;55.80;8.65;;;20.10;90.20;;;;;;4991532;28;20035;-59
2023/05/09 10:28:13;;;;;;;61.15;8.25;;;20.10;90.00;;;;;;4975917;28;20030;-59
2023/05/09 10:30:54;;;;;;;57.97;7.35;;;20.20;89.80;;;;;;4973853;28;20026;-58
2023/05/09 10:33:22;;;;;;;84.45;9.70;;;20.20;89.60;;;;;;4981724;28;20026;-59
2023/05/09 10:35:47;;;;;;;62.55;9.13;;;20.20;88.90;;;;;;4984456;28;20112;-59
2023/05/09 10:38:13;;;;;;;71.03;10.18;;;20.30;88.70;;;;;;4983661;28;20423;-59
2023/05/09 10:40:41;;;;;;;65.07;8.85;;;20.30;88.60;;;;;;4961914;28;20030;-59
2023/05/09 10:43:07;;;;;;;50.30;8.00;;;20.40;88.60;;;;;;5010008;28;20452;-59
2023/05/09 10:45:33;;;;;;;42.78;6.43;;;20.40;88.10;;;;;;4980807;28;20078;-59
2023/05/09 10:47:59;;;;;;;64.80;7.38;;;20.50;87.60;;;;;;5011884;28;20086;-59
2023/05/09 10:50:24;;;;;;;57.90;8.55;;;20.50;86.70;;;;;;4981746;28;20039;-59
2023/05/09 10:53:12;;;;;;;62.60;9.70;;;20.50;86.50;;;;;;4966291;28;20035;-59
2023/05/09 10:55:51;;;;;;;82.88;10.73;;;20.60;86.50;;;;;;4983682;28;20039;-59
2023/05/09 10:58:27;;;;;;;60.25;8.95;;;20.60;86.40;;;;;;4976605;28;20031;-59
2023/05/09 11:00:55;;;;;;;46.58;8.18;;;20.60;86.30;;;;;;4984258;28;20353;-59
2023/05/09 11:03:22;;;;;;;52.22;7.32;;;20.70;85.90;;;;;;5014147;28;20045;-59
2023/05/09 11:05:49;;;;;;;59.95;8.82;;;20.70;85.50;;;;;;4981312;28;20042;-59
2023/05/09 11:08:24;;;;;;;40.10;7.57;;;20.70;85.80;;;;;;4980679;28;20027;-59
2023/05/09 11:10:50;;;;;;;55.80;8.40;;;20.80;86.10;;;;;;4974684;28;20030;-59
2023/05/09 11:13:20;;;;;;;52.78;8.57;;;20.80;85.90;;;;;;5005425;28;20045;-59
2023/05/09 11:16:00;;;;;;;48.47;7.75;;;20.90;86.00;;;;;;4955237;28;20042;-59
2023/05/09 11:18:32;;;;;;;29.17;6.88;;;20.90;85.70;;;;;;4977261;28;20369;-59
2023/05/09 11:20:58;;;;;;;58.53;8.00;;;20.90;85.20;;;;;;4979984;28;20390;-59
2023/05/09 11:23:28;;;;;;;48.13;7.43;;;21.00;85.20;;;;;;4947606;28;20039;-59
2023/05/09 11:26:03;;;;;;;71.28;9.85;;;21.00;85.20;;;;;;4958666;28;20022;-59
2023/05/09 11:28:30;;;;;;;37.58;6.38;;;21.00;84.80;;;;;;4973801;28;20046;-59
2023/05/09 11:31:17;;;;;;;46.38;6.80;;;21.00;84.20;;;;;;4979408;28;20037;-58
2023/05/09 11:33:44;;;;;;;36.42;6.43;;;21.10;84.20;;;;;;4978964;28;20039;-59
2023/05/09 11:36:37;;;;;;;49.20;6.80;;;21.20;84.10;;;;;;4979901;28;20026;-59
2023/05/09 11:39:05;;;;;;;31.60;5.43;;;21.20;84.10;;;;;;4989457;28;20635;-59
2023/05/09 11:41:30;;;;;;;23.08;4.78;;;21.20;83.70;;;;;;4980509;28;20031;-58
2023/05/09 11:43:58;;;;;;;33.13;4.50;;;21.30;82.70;;;;;;4978371;28;20049;-59
2023/05/09 11:46:25;;;;;;;15.15;3.60;;;21.30;82.80;;;;;;4964183;28;20110;-59
2023/05/09 11:48:50;;;;;;;12.25;2.85;;;21.40;82.60;;;;;;4975933;28;20035;-59
2023/05/09 11:51:17;;;;;;;19.02;3.55;;;21.40;82.60;;;;;;4974193;28;20058;-59
2023/05/09 11:53:48;;;;;;;18.40;3.45;;;21.40;82.60;;;;;;4977016;28;20118;-59
2023/05/09 11:56:14;;;;;;;23.08;3.83;;;21.50;82.20;;;;;;4978604;28;20030;-59
2023/05/09 11:58:40;;;;;;;20.05;3.25;;;21.50;82.20;;;;;;4977585;28;20035;-59
2023/05/09 12:01:05;;;;;;;11.48;3.00;;;21.60;81.80;;;;;;4966008;28;20053;-59
2023/05/09 12:03:32;;;;;;;13.85;2.40;;;21.60;81.60;;;;;;4979477;28;20177;-59
2023/05/09 12:05:57;;;;;;;25.52;4.03;;;21.60;81.20;;;;;;4981087;28;20023;-59
2023/05/09 12:08:23;;;;;;;20.92;3.28;;;21.60;81.40;;;;;;4981402;28;20034;-59
2023/05/09 12:10:49;;;;;;;21.65;3.05;;;21.70;81.30;;;;;;4980972;28;20130;-59
2023/05/09 12:13:14;;;;;;;12.05;3.00;;;21.70;81.60;;;;;;4978861;28;20042;-59
2023/05/09 12:15:40;;;;;;;11.43;2.88;;;21.70;81.40;;;;;;4980220;28;20031;-59
2023/05/09 12:18:06;;;;;;;12.20;2.97;;;21.80;81.40;;;;;;4981874;28;20026;-59
2023/05/09 12:20:49;;;;;;;15.63;2.90;;;21.90;81.50;;;;;;4983131;28;20490;-59
2023/05/09 12:23:15;;;;;;;13.13;3.08;;;21.90;81.10;;;;;;4965658;28;20038;-59
2023/05/09 12:25:48;;;;;;;17.40;2.92;;;21.90;80.40;;;;;;4981823;28;20026;-59
2023/05/09 12:28:14;;;;;;;8.00;3.28;;;22.00;80.30;;;;;;4963558;28;20030;-57
2023/05/09 12:30:39;;;;;;;14.18;3.05;;;22.00;80.10;;;;;;4981286;28;20041;-59
2023/05/09 12:33:06;;;;;;;14.18;2.80;;;22.00;79.90;;;;;;4981146;28;20026;-59
2023/05/09 12:35:31;;;;;;;17.65;3.72;;;22.00;79.60;;;;;;4980749;28;20543;-59
2023/05/09 12:37:57;;;;;;;16.92;3.47;;;22.00;79.40;;;;;;4979163;28;20069;-59
2023/05/09 12:40:23;;;;;;;18.20;3.28;;;22.10;79.50;;;;;;4965173;28;20164;-59
2023/05/09 12:42:49;;;;;;;15.30;3.10;;;22.10;79.20;;;;;;4982302;28;20034;-59